Time;durP1;ratioP1;P1;durP2;ratioP2;P2;SDS_P1;SDS_P2;PMS_P1;PMS_P2;Temp;Humidity;BMP_temperature;BMP_pressure;BME280_temperature;BME280_humidity;BME280_pressure;Samples;Min_cycle;Max_cycle;Signal;HPM_P1;HPM_P2
2020/12/13 00:01:56;;;;;;;14.32;11.32;;;7.40;99.90;;;;;;5022949;28;20045;-75
2020/12/13 00:04:22;;;;;;;7.25;6.05;;;7.40;99.90;;;;;;5040017;28;20028;-75
2020/12/13 00:06:47;;;;;;;5.60;5.10;;;7.40;99.90;;;;;;5059034;28;20060;-76
2020/12/13 00:09:13;;;;;;;6.45;5.32;;;7.40;99.90;;;;;;5064706;28;20036;-75
2020/12/13 00:11:39;;;;;;;8.73;5.40;;;7.40;99.90;;;;;;5037041;28;20074;-74
2020/12/13 00:14:05;;;;;;;5.63;4.82;;;7.40;99.90;;;;;;5049422;28;20025;-75
2020/12/13 00:16:30;;;;;;;10.52;6.65;;;7.50;99.90;;;;;;5051822;28;20040;-75
2020/12/13 00:18:56;;;;;;;5.95;5.28;;;7.50;99.90;;;;;;5041146;28;20203;-74
2020/12/13 00:21:26;;;;;;;7.60;5.88;;;7.40;99.90;;;;;;5046762;28;20025;-75
2020/12/13 00:23:53;;;;;;;7.00;5.10;;;7.50;99.90;;;;;;5047842;28;20014;-74
2020/12/13 00:26:18;;;;;;;7.93;5.45;;;7.40;99.90;;;;;;5032485;28;20128;-74
2020/12/13 00:28:44;;;;;;;5.05;4.38;;;7.40;99.90;;;;;;5035470;28;20413;-73
2020/12/13 00:31:13;;;;;;;5.55;4.85;;;7.40;99.90;;;;;;5059843;28;20094;-75
2020/12/13 00:33:39;;;;;;;4.82;4.25;;;7.40;99.90;;;;;;5038125;28;20108;-74
2020/12/13 00:36:05;;;;;;;6.35;4.72;;;7.40;99.90;;;;;;5045736;28;20056;-74
2020/12/13 00:38:30;;;;;;;6.43;5.20;;;7.40;99.90;;;;;;5033249;28;20037;-73
2020/12/13 00:40:56;;;;;;;5.13;4.70;;;7.40;99.90;;;;;;5033756;28;20092;-74
2020/12/13 00:43:21;;;;;;;5.43;4.55;;;7.50;99.90;;;;;;5033383;28;20033;-73
2020/12/13 00:45:47;;;;;;;7.20;5.50;;;7.50;99.90;;;;;;5014697;28;20017;-72
2020/12/13 00:48:12;;;;;;;6.18;4.63;;;7.40;99.90;;;;;;5018157;28;20048;-74
2020/12/13 00:50:39;;;;;;;9.10;5.05;;;7.50;99.90;;;;;;5027386;28;20028;-73
2020/12/13 00:53:07;;;;;;;6.68;5.80;;;7.50;99.90;;;;;;5033704;28;20507;-73
2020/12/13 00:55:33;;;;;;;5.97;5.40;;;7.50;99.90;;;;;;5057306;28;20032;-73
2020/12/13 00:57:59;;;;;;;6.57;5.40;;;7.50;99.90;;;;;;5062333;28;20025;-74
2020/12/13 01:00:26;;;;;;;7.10;6.28;;;7.40;99.90;;;;;;5054518;28;20033;-74
2020/12/13 01:02:52;;;;;;;5.55;5.05;;;7.50;99.90;;;;;;5058119;28;20033;-73
2020/12/13 01:05:19;;;;;;;6.53;5.18;;;7.40;99.90;;;;;;5057923;28;20040;-73
2020/12/13 01:07:45;;;;;;;6.45;5.53;;;7.40;99.90;;;;;;5061703;28;20083;-74
2020/12/13 01:10:11;;;;;;;5.93;4.85;;;7.40;99.90;;;;;;5050271;28;20040;-74
2020/12/13 01:12:36;;;;;;;6.28;5.68;;;7.40;99.90;;;;;;5055993;28;20033;-75
2020/12/13 01:15:05;;;;;;;6.05;5.47;;;7.40;99.90;;;;;;5051164;28;20025;-73
2020/12/13 01:17:31;;;;;;;5.65;4.80;;;7.40;99.90;;;;;;5053628;28;20033;-73
2020/12/13 01:19:56;;;;;;;6.72;5.55;;;7.40;99.90;;;;;;5041991;28;20101;-74
2020/12/13 01:22:23;;;;;;;7.15;5.20;;;7.40;99.90;;;;;;5045887;28;20049;-74
2020/12/13 01:24:49;;;;;;;6.53;5.82;;;7.40;99.90;;;;;;5036960;28;20087;-73
2020/12/13 01:27:14;;;;;;;7.30;6.60;;;7.40;99.90;;;;;;5036891;28;20029;-74
2020/12/13 01:29:40;;;;;;;7.40;6.20;;;7.30;99.90;;;;;;5049003;28;20439;-74
2020/12/13 01:32:06;;;;;;;6.30;5.43;;;7.30;99.90;;;;;;5058170;28;20040;-74
2020/12/13 01:34:31;;;;;;;7.68;5.97;;;7.30;99.90;;;;;;5053197;28;20402;-75
2020/12/13 01:36:57;;;;;;;8.25;6.22;;;7.30;99.90;;;;;;5037476;28;20561;-74
2020/12/13 01:39:22;;;;;;;8.23;7.40;;;7.30;99.90;;;;;;5037532;28;20049;-73
2020/12/13 01:41:48;;;;;;;6.18;5.57;;;7.30;99.90;;;;;;5035332;28;20087;-73
2020/12/13 01:44:13;;;;;;;6.57;5.97;;;7.30;99.90;;;;;;5043792;28;20025;-76
2020/12/13 01:46:41;;;;;;;6.68;6.07;;;7.30;99.90;;;;;;5065539;28;20028;-74
2020/12/13 01:49:10;;;;;;;7.55;6.53;;;7.20;99.90;;;;;;5036144;28;20031;-73
2020/12/13 01:54:25;;;;;;;6.97;6.28;;;7.20;99.90;;;;;;5035899;28;20057;-73
2020/12/13 01:56:53;;;;;;;8.23;6.68;;;7.30;99.90;;;;;;5046957;28;20051;-72
2020/12/13 01:59:20;;;;;;;6.38;5.68;;;7.20;99.90;;;;;;5055410;28;20028;-72
2020/12/13 02:01:54;;;;;;;9.05;5.65;;;7.20;99.90;;;;;;5055593;28;20192;-73
2020/12/13 02:04:21;;;;;;;9.52;7.03;;;7.20;99.90;;;;;;5041145;28;20021;-72
2020/12/13 02:06:53;;;;;;;10.35;6.47;;;7.20;99.90;;;;;;5060232;28;20025;-73
2020/12/13 02:09:23;;;;;;;8.90;8.00;;;7.20;99.90;;;;;;5039281;28;20112;-73
2020/12/13 02:11:49;;;;;;;14.60;7.73;;;7.30;99.90;;;;;;5054756;28;20021;-73
2020/12/13 02:14:15;;;;;;;9.38;6.82;;;7.30;99.90;;;;;;5045472;28;20286;-74
2020/12/13 02:16:45;;;;;;;7.70;6.88;;;7.30;99.90;;;;;;5028383;28;20025;-74
2020/12/13 02:19:16;;;;;;;9.13;7.82;;;7.30;99.90;;;;;;5035066;28;20629;-76
2020/12/13 02:21:46;;;;;;;8.00;7.20;;;7.30;99.90;;;;;;5043424;28;20370;-74
2020/12/13 02:24:12;;;;;;;9.68;7.47;;;7.30;99.90;;;;;;5041739;28;20025;-74
2020/12/13 02:26:42;;;;;;;7.30;6.57;;;7.30;99.90;;;;;;5034977;28;20037;-73
2020/12/13 02:29:08;;;;;;;7.47;6.78;;;7.30;99.90;;;;;;5053247;28;20120;-73
2020/12/13 02:31:34;;;;;;;7.05;6.15;;;7.30;99.90;;;;;;5064912;28;20068;-74
2020/12/13 02:34:02;;;;;;;6.55;5.82;;;7.30;99.90;;;;;;5050434;28;20030;-73
2020/12/13 02:36:28;;;;;;;8.82;5.55;;;7.30;99.90;;;;;;5035203;28;20084;-73
2020/12/13 02:38:54;;;;;;;6.88;6.07;;;7.30;99.90;;;;;;5034935;28;20513;-73
2020/12/13 02:41:20;;;;;;;8.52;6.60;;;7.30;99.90;;;;;;5034365;28;20064;-73
2020/12/13 02:43:46;;;;;;;7.43;5.68;;;7.30;99.90;;;;;;5034606;28;20033;-73
2020/12/13 02:46:11;;;;;;;6.90;6.20;;;7.30;99.90;;;;;;5034889;28;20032;-72
2020/12/13 02:48:37;;;;;;;7.15;5.57;;;7.40;99.90;;;;;;5034569;28;20037;-72
2020/12/13 02:51:02;;;;;;;5.93;5.28;;;7.30;99.90;;;;;;5034426;28;20029;-74
2020/12/13 02:53:28;;;;;;;6.65;5.85;;;7.30;99.90;;;;;;5034196;28;20493;-73
2020/12/13 02:55:53;;;;;;;7.50;3.88;;;7.40;99.90;;;;;;5033913;28;20044;-75
2020/12/13 02:58:19;;;;;;;4.47;4.03;;;7.30;99.90;;;;;;5034640;28;20037;-74
2020/12/13 03:00:44;;;;;;;5.95;3.53;;;7.40;99.90;;;;;;5034037;28;20025;-73
2020/12/13 03:03:10;;;;;;;3.35;3.05;;;7.40;99.90;;;;;;5034082;28;20025;-74
2020/12/13 03:05:36;;;;;;;4.28;3.35;;;7.40;99.90;;;;;;5048652;28;20025;-72
2020/12/13 03:08:01;;;;;;;4.20;2.90;;;7.40;99.90;;;;;;5052853;28;20067;-73
2020/12/13 03:10:27;;;;;;;3.20;2.90;;;7.40;99.90;;;;;;5046896;28;20401;-73
2020/12/13 03:12:52;;;;;;;3.38;3.08;;;7.40;99.90;;;;;;5033621;28;20033;-73
2020/12/13 03:15:18;;;;;;;5.93;3.65;;;7.40;99.90;;;;;;5034245;28;20026;-73
2020/12/13 03:17:44;;;;;;;4.40;3.97;;;7.40;99.90;;;;;;5034073;28;20030;-73
2020/12/13 03:20:09;;;;;;;4.38;3.97;;;7.40;99.90;;;;;;5019713;28;20488;-72
2020/12/13 03:22:35;;;;;;;5.63;4.18;;;7.40;99.90;;;;;;5033870;28;20400;-74
2020/12/13 03:25:01;;;;;;;5.55;3.90;;;7.40;99.90;;;;;;5052104;28;20124;-74
2020/12/13 03:27:26;;;;;;;4.82;4.32;;;7.40;99.90;;;;;;5052964;28;20044;-74
2020/12/13 03:29:52;;;;;;;4.82;4.15;;;7.40;99.90;;;;;;5055641;28;20039;-74
2020/12/13 03:32:18;;;;;;;5.78;4.55;;;7.40;99.90;;;;;;5061362;28;20029;-74
2020/12/13 03:34:44;;;;;;;4.53;4.05;;;7.40;99.90;;;;;;5058898;28;20036;-73
2020/12/13 03:37:09;;;;;;;5.32;4.82;;;7.40;99.90;;;;;;5031417;28;20028;-73
2020/12/13 03:39:35;;;;;;;4.30;3.90;;;7.40;99.90;;;;;;5041877;28;20511;-73
2020/12/13 03:42:00;;;;;;;4.95;4.47;;;7.50;99.90;;;;;;5048265;28;20025;-73
2020/12/13 03:44:26;;;;;;;5.20;4.47;;;7.60;99.90;;;;;;5034535;28;20481;-74
2020/12/13 03:46:51;;;;;;;5.75;5.13;;;7.50;99.90;;;;;;5025543;28;20036;-72
2020/12/13 03:49:17;;;;;;;4.68;4.07;;;7.30;99.90;;;;;;5034042;28;20053;-73
2020/12/13 03:51:42;;;;;;;7.90;4.30;;;7.30;99.90;;;;;;5034008;28;20036;-74
2020/12/13 03:54:08;;;;;;;5.22;4.05;;;7.20;99.90;;;;;;5033622;28;20036;-74
2020/12/13 03:56:34;;;;;;;4.40;4.00;;;7.20;99.90;;;;;;5033865;28;20459;-73
2020/12/13 03:59:00;;;;;;;4.15;3.75;;;7.20;99.90;;;;;;5034076;28;20472;-73
2020/12/13 04:01:25;;;;;;;4.78;4.28;;;7.30;99.90;;;;;;5033530;28;20025;-73
2020/12/13 04:03:51;;;;;;;4.30;3.90;;;7.20;99.90;;;;;;5034251;28;20025;-74
2020/12/13 04:06:16;;;;;;;5.03;3.92;;;7.30;99.90;;;;;;5033565;28;20022;-74
2020/12/13 04:08:42;;;;;;;4.38;3.72;;;7.30;99.90;;;;;;5034063;28;20033;-73
2020/12/13 04:11:07;;;;;;;3.30;2.92;;;7.30;99.90;;;;;;5033230;28;20034;-74
2020/12/13 04:13:33;;;;;;;3.05;2.78;;;7.30;99.90;;;;;;5046706;28;20108;-72
2020/12/13 04:15:59;;;;;;;4.40;2.78;;;7.40;99.90;;;;;;5033953;28;20461;-72
2020/12/13 04:18:24;;;;;;;4.20;2.60;;;7.30;99.90;;;;;;5033246;28;20048;-73
2020/12/13 04:20:50;;;;;;;3.17;2.95;;;7.30;99.90;;;;;;5033838;28;20056;-74
2020/12/13 04:23:15;;;;;;;2.78;2.50;;;7.30;99.90;;;;;;5043520;28;20029;-73
2020/12/13 04:25:41;;;;;;;5.18;2.65;;;7.40;99.90;;;;;;5016032;28;20024;-72
2020/12/13 04:28:06;;;;;;;3.75;2.53;;;7.40;99.90;;;;;;5022390;28;20444;-72
2020/12/13 04:30:32;;;;;;;3.20;2.20;;;7.40;99.90;;;;;;5055331;28;20025;-74
2020/12/13 04:32:57;;;;;;;2.58;2.38;;;7.40;99.90;;;;;;5036447;28;20063;-73
2020/12/13 04:35:23;;;;;;;2.55;2.35;;;7.40;99.90;;;;;;5032824;28;20102;-72
2020/12/13 04:37:48;;;;;;;3.30;2.25;;;7.40;99.90;;;;;;5048498;28;20033;-73
2020/12/13 04:40:14;;;;;;;3.15;2.40;;;7.50;99.90;;;;;;5036433;28;20377;-74
2020/12/13 04:42:39;;;;;;;2.80;2.10;;;7.40;99.90;;;;;;5036332;28;20407;-73
2020/12/13 04:45:07;;;;;;;2.55;2.35;;;7.50;99.90;;;;;;5040597;28;20025;-74
2020/12/13 04:47:35;;;;;;;3.15;2.40;;;7.40;99.90;;;;;;5048613;28;20036;-73
2020/12/13 04:50:04;;;;;;;3.97;2.50;;;7.50;99.90;;;;;;5041603;28;20389;-74
2020/12/13 04:52:31;;;;;;;2.47;2.13;;;7.50;99.90;;;;;;5033342;28;20030;-73
2020/12/13 04:54:56;;;;;;;2.10;1.90;;;7.50;99.90;;;;;;5033534;28;20033;-73
2020/12/13 04:57:22;;;;;;;4.13;2.55;;;7.50;99.90;;;;;;5032546;28;20367;-73
2020/12/13 04:59:49;;;;;;;2.60;2.40;;;7.50;99.90;;;;;;5032715;28;20039;-73
2020/12/13 05:02:16;;;;;;;2.22;1.98;;;7.50;99.90;;;;;;5033345;28;20021;-73
2020/12/13 05:04:42;;;;;;;2.78;2.58;;;7.50;99.90;;;;;;5041798;28;20029;-72
2020/12/13 05:07:08;;;;;;;1.90;1.80;;;7.50;99.90;;;;;;5034261;28;20033;-73
2020/12/13 05:09:34;;;;;;;2.85;2.55;;;7.50;99.90;;;;;;5056734;28;20081;-73
2020/12/13 05:12:00;;;;;;;2.20;2.00;;;7.50;99.90;;;;;;5041273;28;20040;-74
2020/12/13 05:14:26;;;;;;;2.25;2.05;;;7.50;99.90;;;;;;5034500;28;20092;-74
2020/12/13 05:17:09;;;;;;;2.33;1.83;;;7.50;99.90;;;;;;5040484;28;20107;-73
2020/12/13 05:19:37;;;;;;;2.63;2.13;;;7.50;99.90;;;;;;5044611;28;20021;-73
2020/12/13 05:22:03;;;;;;;2.67;2.47;;;7.50;99.90;;;;;;5041152;28;20082;-73
2020/12/13 05:24:29;;;;;;;1.95;1.75;;;7.50;99.90;;;;;;5048883;28;20412;-73
2020/12/13 05:26:59;;;;;;;2.10;1.88;;;7.50;99.90;;;;;;5040464;28;20770;-74
2020/12/13 05:29:26;;;;;;;2.10;1.90;;;7.60;99.90;;;;;;5053635;28;20072;-73
2020/12/13 05:31:52;;;;;;;2.35;2.00;;;7.60;99.90;;;;;;5062003;28;20397;-74
2020/12/13 05:34:18;;;;;;;2.42;1.60;;;7.60;99.90;;;;;;5049834;28;20036;-74
2020/12/13 05:36:44;;;;;;;1.75;1.50;;;7.60;99.90;;;;;;5044888;28;20025;-73
2020/12/13 05:39:11;;;;;;;1.77;1.67;;;7.60;99.90;;;;;;5042745;28;20406;-73
2020/12/13 05:41:38;;;;;;;1.92;1.73;;;7.60;99.90;;;;;;5057992;23;20072;-72
2020/12/13 05:52:14;;;;;;;2.28;2.08;;;7.60;99.90;;;;;;5023078;28;20049;-72
2020/12/13 05:54:41;;;;;;;2.35;1.88;;;7.60;99.90;;;;;;4999634;28;20362;-72
2020/12/13 05:57:09;;;;;;;1.80;1.70;;;7.70;99.90;;;;;;5027202;28;20025;-71
2020/12/13 05:59:35;;;;;;;1.80;1.70;;;7.70;99.90;;;;;;5031565;28;20403;-70
2020/12/13 06:02:02;;;;;;;1.63;1.52;;;7.70;99.90;;;;;;5020169;28;20082;-72
2020/12/13 06:04:32;;;;;;;1.55;1.42;;;7.70;99.90;;;;;;5034273;28;20026;-72
2020/12/13 06:07:02;;;;;;;2.23;1.50;;;7.70;99.90;;;;;;5017872;28;20495;-72
2020/12/13 06:09:33;;;;;;;2.38;1.42;;;7.70;99.90;;;;;;5016592;28;20030;-70
2020/12/13 06:12:04;;;;;;;5.45;2.83;;;7.70;99.90;;;;;;5028080;28;20108;-72
2020/12/13 06:14:30;;;;;;;1.65;1.30;;;7.70;99.90;;;;;;5035814;28;20083;-71
2020/12/13 06:16:57;;;;;;;1.15;1.05;;;7.80;99.90;;;;;;5024780;28;20041;-71
2020/12/13 06:19:29;;;;;;;1.52;1.30;;;7.70;99.90;;;;;;5030147;28;20026;-71
2020/12/13 06:21:56;;;;;;;1.77;1.63;;;7.70;99.90;;;;;;5033455;28;20036;-72
2020/12/13 06:24:22;;;;;;;1.70;1.20;;;7.70;99.90;;;;;;5029778;28;20022;-71
2020/12/13 06:26:49;;;;;;;2.65;1.55;;;7.70;99.90;;;;;;5025398;28;20025;-71
2020/12/13 06:29:15;;;;;;;1.30;1.20;;;7.70;99.90;;;;;;5025796;28;20439;-72
2020/12/13 06:31:41;;;;;;;3.42;2.20;;;7.70;99.90;;;;;;5046984;28;20025;-71
2020/12/13 06:34:07;;;;;;;2.17;1.42;;;7.70;99.90;;;;;;5036620;28;20144;-71
2020/12/13 06:36:35;;;;;;;1.70;1.60;;;7.70;99.90;;;;;;5035327;28;20025;-72
2020/12/13 06:39:01;;;;;;;1.73;1.27;;;7.70;99.90;;;;;;5040431;28;20026;-71
2020/12/13 06:41:29;;;;;;;1.15;1.05;;;7.70;99.90;;;;;;5023937;28;20037;-72
2020/12/13 06:43:54;;;;;;;2.40;1.58;;;7.70;99.90;;;;;;5017100;28;20028;-72
2020/12/13 06:46:22;;;;;;;1.15;1.05;;;7.70;99.90;;;;;;5015836;28;20400;-71
2020/12/13 06:48:47;;;;;;;3.05;2.50;;;7.70;99.90;;;;;;5023710;28;20045;-72
2020/12/13 06:51:36;;;;;;;4.00;3.63;;;7.70;99.90;;;;;;5020950;28;20037;-70
2020/12/13 06:54:05;;;;;;;1.23;1.13;;;7.80;99.90;;;;;;5034739;28;20029;-70
2020/12/13 06:56:31;;;;;;;1.17;1.08;;;7.70;99.90;;;;;;5020629;28;20079;-71
2020/12/13 06:59:01;;;;;;;1.48;1.30;;;7.70;99.90;;;;;;5035899;28;20029;-71
2020/12/13 07:01:36;;;;;;;1.20;1.10;;;7.80;99.90;;;;;;5022677;28;20543;-72
2020/12/13 07:04:20;;;;;;;1.55;1.45;;;7.80;99.90;;;;;;5018667;28;20021;-74
2020/12/13 07:06:47;;;;;;;2.40;1.33;;;7.70;99.90;;;;;;5035998;28;20032;-71
2020/12/13 07:09:14;;;;;;;1.30;1.20;;;7.70;99.90;;;;;;5021552;28;20040;-72
2020/12/13 07:11:41;;;;;;;1.15;1.05;;;7.70;99.90;;;;;;5027819;28;20049;-72
2020/12/13 07:14:14;;;;;;;1.02;0.95;;;7.70;99.90;;;;;;5018165;28;20025;-73
2020/12/13 07:16:47;;;;;;;2.15;1.25;;;7.70;99.90;;;;;;5017110;28;20037;-74
2020/12/13 07:19:17;;;;;;;1.77;1.20;;;7.70;99.90;;;;;;5017403;28;20091;-72
2020/12/13 07:21:44;;;;;;;1.20;1.10;;;7.70;99.90;;;;;;5023182;28;20017;-73
2020/12/13 07:24:11;;;;;;;3.10;1.27;;;7.70;99.90;;;;;;5023757;28;20034;-72
2020/12/13 07:26:38;;;;;;;1.13;1.02;;;7.70;99.90;;;;;;5031924;28;20021;-74
2020/12/13 07:29:06;;;;;;;1.20;1.10;;;7.70;99.90;;;;;;5027000;28;20129;-72
2020/12/13 07:31:35;;;;;;;0.80;0.80;;;7.70;99.90;;;;;;5023298;28;20029;-72
2020/12/13 07:34:06;;;;;;;5.88;1.70;;;7.70;99.90;;;;;;5037007;28;20026;-73
2020/12/13 07:36:33;;;;;;;1.13;1.00;;;7.70;99.90;;;;;;5015784;28;20034;-71
2020/12/13 07:39:04;;;;;;;1.23;0.90;;;7.80;99.90;;;;;;5032567;28;20021;-71
2020/12/13 07:41:30;;;;;;;2.35;1.17;;;7.80;99.90;;;;;;5017003;28;20452;-72
2020/12/13 07:44:02;;;;;;;1.00;0.80;;;7.70;99.90;;;;;;5017435;28;20033;-73
2020/12/13 07:46:29;;;;;;;5.53;1.35;;;7.80;99.90;;;;;;5031126;28;20033;-72
2020/12/13 07:49:02;;;;;;;1.05;0.80;;;7.70;99.90;;;;;;5033057;28;20056;-72
2020/12/13 07:51:28;;;;;;;1.38;1.00;;;7.70;99.90;;;;;;5016948;28;20049;-72
2020/12/13 07:53:54;;;;;;;3.05;1.10;;;7.70;99.90;;;;;;5016504;28;20030;-72
2020/12/13 07:56:27;;;;;;;1.45;1.35;;;7.70;99.90;;;;;;5017862;28;20030;-71
2020/12/13 07:59:10;;;;;;;2.58;1.85;;;7.70;99.90;;;;;;5025720;28;20384;-71
2020/12/13 08:01:36;;;;;;;1.42;1.13;;;7.70;99.90;;;;;;5024470;28;20025;-72
2020/12/13 08:04:02;;;;;;;3.65;1.02;;;7.80;99.90;;;;;;5021588;28;20377;-73
2020/12/13 08:06:27;;;;;;;2.42;1.30;;;7.80;99.90;;;;;;5001318;28;20488;-71
2020/12/13 08:08:53;;;;;;;3.65;1.27;;;7.70;99.90;;;;;;5015256;28;20515;-71
2020/12/13 08:11:19;;;;;;;3.97;1.73;;;7.70;99.90;;;;;;5034310;28;20024;-70
2020/12/13 08:13:52;;;;;;;3.15;1.50;;;7.70;99.90;;;;;;5025437;28;20021;-72
2020/12/13 08:16:18;;;;;;;2.35;1.90;;;7.70;99.90;;;;;;5015240;28;20032;-73
2020/12/13 08:18:46;;;;;;;2.72;1.40;;;7.70;99.90;;;;;;5015607;28;20128;-71
2020/12/13 08:21:17;;;;;;;1.73;1.33;;;7.70;99.90;;;;;;5011199;28;20056;-71
2020/12/13 08:23:47;;;;;;;1.35;1.00;;;7.70;99.90;;;;;;5022377;28;20018;-71
2020/12/13 08:26:14;;;;;;;2.83;1.35;;;7.70;99.90;;;;;;5025632;28;20049;-72
2020/12/13 08:28:42;;;;;;;4.88;1.40;;;7.70;99.90;;;;;;5018045;28;20109;-73
2020/12/13 08:31:13;;;;;;;1.40;1.30;;;7.70;99.90;;;;;;5040528;28;20032;-71
2020/12/13 08:33:39;;;;;;;1.73;1.45;;;7.80;99.90;;;;;;5042179;28;20030;-72
2020/12/13 08:36:19;;;;;;;4.00;1.58;;;7.70;99.90;;;;;;5040747;28;20035;-72
2020/12/13 08:38:44;;;;;;;1.40;1.30;;;7.80;99.90;;;;;;5033156;28;20037;-72
2020/12/13 08:41:12;;;;;;;2.08;1.50;;;7.80;99.90;;;;;;5027265;28;20026;-71
2020/12/13 08:43:38;;;;;;;1.52;1.35;;;7.80;99.90;;;;;;5024547;28;20034;-73
2020/12/13 08:46:04;;;;;;;1.73;1.33;;;7.80;99.90;;;;;;5027026;28;20017;-72
2020/12/13 08:48:30;;;;;;;3.08;1.50;;;7.80;99.90;;;;;;5027776;28;20030;-73
2020/12/13 08:51:05;;;;;;;2.78;1.50;;;7.80;99.90;;;;;;5026444;28;20029;-73
2020/12/13 08:53:31;;;;;;;1.38;1.27;;;7.90;99.90;;;;;;5042253;28;20041;-71
2020/12/13 08:56:04;;;;;;;3.33;1.30;;;7.90;99.90;;;;;;5023470;28;20048;-71
2020/12/13 08:58:30;;;;;;;5.20;1.30;;;8.00;99.90;;;;;;5019494;28;20028;-70
2020/12/13 09:01:08;;;;;;;2.95;2.38;;;7.90;99.90;;;;;;5025375;28;20034;-72
2020/12/13 09:03:33;;;;;;;1.50;1.40;;;8.00;99.90;;;;;;5022786;28;20033;-72
2020/12/13 09:05:59;;;;;;;2.08;1.88;;;8.10;99.90;;;;;;5018787;28;20021;-74
2020/12/13 09:08:26;;;;;;;2.38;1.73;;;8.10;99.90;;;;;;5009761;28;20033;-72
2020/12/13 09:10:52;;;;;;;2.25;2.05;;;8.20;99.90;;;;;;5022647;28;20401;-74
2020/12/13 09:13:19;;;;;;;2.58;1.88;;;8.20;99.90;;;;;;5026751;28;20049;-72
2020/12/13 09:15:45;;;;;;;2.88;2.65;;;8.30;99.90;;;;;;5040828;28;20025;-72
2020/12/13 09:18:11;;;;;;;2.45;2.25;;;8.30;99.90;;;;;;5040019;28;20033;-71
2020/12/13 09:20:37;;;;;;;2.20;2.00;;;8.30;99.90;;;;;;5026177;28;20026;-71
2020/12/13 09:23:13;;;;;;;1.92;1.80;;;8.40;99.90;;;;;;5018424;28;20030;-71
2020/12/13 09:25:44;;;;;;;2.13;2.00;;;8.40;99.90;;;;;;5018717;28;20383;-73
2020/12/13 09:28:10;;;;;;;;;;;8.50;99.90;;;;;;5044110;28;20029;-71
2020/12/13 09:30:37;;;;;;;3.60;1.90;;;8.50;99.90;;;;;;5035187;28;19916;-72
2020/12/13 09:33:03;;;;;;;2.78;2.08;;;8.50;99.90;;;;;;5038596;28;20116;-72
2020/12/13 09:35:30;;;;;;;2.15;1.73;;;8.50;99.90;;;;;;5032312;28;20030;-72
2020/12/13 09:38:03;;;;;;;2.33;2.13;;;8.60;99.90;;;;;;5022702;28;20120;-71
2020/12/13 09:40:30;;;;;;;2.30;1.95;;;8.60;99.90;;;;;;5034856;28;20048;-72
2020/12/13 09:42:56;;;;;;;4.13;1.90;;;8.70;99.90;;;;;;5029160;28;20033;-73
2020/12/13 09:45:22;;;;;;;2.25;2.05;;;8.70;99.90;;;;;;5029829;28;20025;-72
2020/12/13 09:47:49;;;;;;;2.60;1.80;;;8.70;99.90;;;;;;5032399;28;20472;-71
2020/12/13 09:50:17;;;;;;;2.25;2.00;;;8.70;99.90;;;;;;5016075;28;20066;-72
2020/12/13 09:52:43;;;;;;;2.85;2.42;;;8.80;99.90;;;;;;4998318;28;20026;-72
2020/12/13 09:55:08;;;;;;;3.90;2.22;;;8.80;99.90;;;;;;5015472;28;20037;-72
2020/12/13 09:57:34;;;;;;;3.80;2.65;;;8.80;99.90;;;;;;5015560;28;20037;-72
2020/12/13 09:59:59;;;;;;;2.53;1.70;;;8.90;99.90;;;;;;5016635;28;20452;-72
2020/12/13 10:02:25;;;;;;;5.53;3.30;;;9.00;99.90;;;;;;5035738;28;20018;-71
2020/12/13 10:04:51;;;;;;;2.10;1.90;;;9.00;99.90;;;;;;5037520;28;20057;-71
2020/12/13 10:09:44;;;;;;;2.38;2.17;;;9.00;99.90;;;;;;5033825;28;20397;-72
2020/12/13 10:12:10;;;;;;;3.67;2.63;;;9.10;99.90;;;;;;5037915;28;20048;-72
2020/12/13 10:14:36;;;;;;;3.92;2.10;;;9.10;99.90;;;;;;5020480;28;20022;-74
2020/12/13 10:17:02;;;;;;;3.20;2.25;;;9.20;99.90;;;;;;5020632;28;20069;-73
2020/12/13 10:19:27;;;;;;;4.25;2.20;;;9.10;99.90;;;;;;5018960;28;20018;-70
2020/12/13 10:21:53;;;;;;;3.92;2.28;;;9.10;99.90;;;;;;5017649;28;20076;-72
2020/12/13 10:24:19;;;;;;;3.08;2.22;;;9.10;99.90;;;;;;5002959;28;20009;-71
2020/12/13 10:26:44;;;;;;;3.30;2.28;;;9.10;99.90;;;;;;5034989;28;20024;-70
2020/12/13 10:29:10;;;;;;;3.50;2.05;;;9.10;99.90;;;;;;5032455;28;20036;-71
2020/12/13 10:31:38;;;;;;;2.03;1.30;;;9.00;99.90;;;;;;5029098;28;20020;-72
2020/12/13 10:34:08;;;;;;;2.20;1.45;;;9.00;99.90;;;;;;5055910;28;20033;-71
2020/12/13 10:36:35;;;;;;;4.18;1.92;;;9.00;99.90;;;;;;5055337;28;20021;-73
2020/12/13 10:39:04;;;;;;;1.35;1.13;;;9.00;99.90;;;;;;5035796;28;20056;-71
2020/12/13 10:41:30;;;;;;;1.45;1.35;;;9.10;99.90;;;;;;5038161;28;20093;-71
2020/12/13 10:43:56;;;;;;;2.70;1.67;;;9.00;99.90;;;;;;5034203;28;20025;-71
2020/12/13 10:46:22;;;;;;;2.40;1.67;;;9.10;99.90;;;;;;5037520;28;20021;-72
2020/12/13 10:48:48;;;;;;;1.45;1.20;;;8.90;99.90;;;;;;5016519;28;20028;-73
2020/12/13 10:51:15;;;;;;;2.22;1.75;;;9.00;99.90;;;;;;5016862;28;20095;-72
2020/12/13 10:53:41;;;;;;;1.65;1.30;;;9.10;99.90;;;;;;4999173;28;20034;-72
2020/12/13 10:56:07;;;;;;;1.50;1.40;;;9.10;99.90;;;;;;5016651;28;20034;-72
2020/12/13 10:58:33;;;;;;;1.60;1.20;;;9.00;99.90;;;;;;5016005;28;20036;-72
2020/12/13 11:01:01;;;;;;;1.88;1.55;;;9.00;99.90;;;;;;5017721;28;20022;-72
2020/12/13 11:03:28;;;;;;;2.90;1.33;;;9.10;99.90;;;;;;5006149;28;20481;-72
2020/12/13 11:05:53;;;;;;;1.23;1.13;;;9.10;99.90;;;;;;5018649;28;20053;-73
2020/12/13 11:08:19;;;;;;;1.02;0.88;;;9.20;99.90;;;;;;5018747;28;20481;-72
2020/12/13 11:10:48;;;;;;;1.13;1.00;;;9.40;99.90;;;;;;5026672;28;20025;-73
2020/12/13 11:13:14;;;;;;;1.30;1.00;;;9.50;99.90;;;;;;5025565;28;20112;-72
2020/12/13 11:15:41;;;;;;;3.85;1.75;;;9.40;99.90;;;;;;5019329;28;20447;-72
2020/12/13 11:18:07;;;;;;;1.20;1.00;;;9.40;99.90;;;;;;5036890;28;20030;-74
2020/12/13 11:20:33;;;;;;;2.80;1.38;;;9.30;99.90;;;;;;5025644;28;20032;-71
2020/12/13 11:22:58;;;;;;;1.75;1.25;;;9.20;99.90;;;;;;5002460;28;20029;-71
2020/12/13 11:25:24;;;;;;;4.85;1.35;;;9.20;99.90;;;;;;5017419;28;20033;-71
2020/12/13 11:27:49;;;;;;;4.45;1.70;;;9.20;99.90;;;;;;5020007;28;20030;-70
2020/12/13 11:30:15;;;;;;;7.30;3.70;;;9.20;99.90;;;;;;5040028;28;20447;-73
2020/12/13 11:32:43;;;;;;;3.03;1.42;;;9.10;99.90;;;;;;5034833;28;20140;-72
2020/12/13 11:35:09;;;;;;;3.30;1.33;;;9.10;99.90;;;;;;5002681;28;20026;-72
2020/12/13 11:37:35;;;;;;;2.95;1.38;;;9.10;99.90;;;;;;5024017;28;20088;-71
2020/12/13 11:40:00;;;;;;;2.83;1.55;;;9.10;99.90;;;;;;5058231;23;20025;-72
2020/12/13 11:42:26;;;;;;;1.63;1.30;;;9.10;99.90;;;;;;5052963;28;20025;-73
2020/12/13 11:44:52;;;;;;;4.05;1.40;;;9.00;99.90;;;;;;5058754;28;20029;-75
2020/12/13 11:47:17;;;;;;;2.95;1.45;;;9.00;99.90;;;;;;5059034;28;20017;-73
2020/12/13 11:49:44;;;;;;;2.15;1.30;;;9.00;99.90;;;;;;5055003;28;20024;-73
2020/12/13 11:52:09;;;;;;;2.03;1.50;;;9.00;99.90;;;;;;5042614;28;20054;-74
2020/12/13 11:54:35;;;;;;;1.67;1.10;;;9.00;99.90;;;;;;5038966;28;20112;-75
2020/12/13 11:57:00;;;;;;;2.58;1.55;;;9.00;99.90;;;;;;5043612;28;20037;-72
2020/12/13 11:59:28;;;;;;;5.18;2.47;;;9.00;99.90;;;;;;5038424;28;20021;-73
2020/12/13 12:01:54;;;;;;;2.67;0.95;;;8.90;99.90;;;;;;5036259;28;20065;-74
2020/12/13 12:04:19;;;;;;;2.40;1.10;;;8.90;99.90;;;;;;5036488;28;20112;-74
2020/12/13 12:06:46;;;;;;;2.63;1.13;;;8.90;99.90;;;;;;5036595;28;20080;-74
2020/12/13 12:09:13;;;;;;;4.85;1.98;;;8.90;99.90;;;;;;5036302;28;20508;-73
2020/12/13 12:11:38;;;;;;;2.28;1.25;;;8.90;99.90;;;;;;5035386;28;20037;-73
2020/12/13 12:14:05;;;;;;;1.27;0.82;;;8.90;99.90;;;;;;5035060;28;20028;-74
2020/12/13 12:16:31;;;;;;;2.53;1.08;;;8.90;99.90;;;;;;5015465;28;20022;-74
2020/12/13 12:18:57;;;;;;;2.13;1.30;;;8.80;99.90;;;;;;5037746;28;20060;-74
2020/12/13 12:21:26;;;;;;;1.67;1.23;;;8.80;99.90;;;;;;5044746;28;20547;-73
2020/12/13 12:23:52;;;;;;;2.38;1.15;;;8.80;99.90;;;;;;5040660;28;20025;-72
2020/12/13 12:26:19;;;;;;;2.35;1.25;;;8.90;99.90;;;;;;5042714;28;20025;-73
2020/12/13 12:28:48;;;;;;;1.58;1.17;;;8.90;99.90;;;;;;5047015;28;20029;-73
2020/12/13 12:31:18;;;;;;;3.53;1.08;;;8.80;99.90;;;;;;5051912;28;20099;-73
2020/12/13 12:33:44;;;;;;;1.13;0.82;;;8.90;99.90;;;;;;5039005;28;20033;-74
2020/12/13 12:36:17;;;;;;;2.17;1.33;;;8.80;99.90;;;;;;5035780;28;20053;-74
2020/12/13 12:38:43;;;;;;;1.20;1.00;;;8.80;99.90;;;;;;5023512;28;20093;-74
2020/12/13 12:41:13;;;;;;;1.30;0.90;;;8.80;99.90;;;;;;5015710;28;20061;-74
2020/12/13 12:43:39;;;;;;;2.97;1.25;;;8.70;99.90;;;;;;5033898;28;20146;-74
2020/12/13 12:46:05;;;;;;;5.72;1.80;;;8.70;99.90;;;;;;5033004;28;20026;-75
2020/12/13 12:48:31;;;;;;;1.88;1.30;;;8.60;99.90;;;;;;5035714;28;20037;-74
2020/12/13 12:51:00;;;;;;;1.45;1.00;;;8.60;99.90;;;;;;5048505;28;20035;-74
2020/12/13 12:53:25;;;;;;;3.67;1.60;;;8.70;99.90;;;;;;5039631;28;20021;-73
2020/12/13 12:55:51;;;;;;;2.60;1.20;;;8.60;99.90;;;;;;5033102;28;20348;-73
2020/12/13 12:58:16;;;;;;;2.90;1.35;;;8.60;99.90;;;;;;5042053;28;20036;-71
2020/12/13 13:00:50;;;;;;;4.45;1.30;;;8.60;99.90;;;;;;5045092;28;20036;-73
2020/12/13 13:03:16;;;;;;;2.38;1.30;;;8.60;99.90;;;;;;5048391;28;20083;-74
2020/12/13 13:05:58;;;;;;;5.50;1.77;;;8.60;99.90;;;;;;5033702;28;20089;-74
2020/12/13 13:08:27;;;;;;;2.70;1.50;;;8.70;99.90;;;;;;5026353;28;20025;-73
2020/12/13 13:11:01;;;;;;;4.75;2.00;;;8.60;99.90;;;;;;5033573;28;20057;-72